sensor_id;sensor_type;location;lat;lon;timestamp;P1;durP1;ratioP1;P2;durP2;ratioP2
23242;SDS011;11790;49.578;11.214;2023-10-08T00:00:49;10.23;;;5.30;;
23242;SDS011;11790;49.578;11.214;2023-10-08T00:05:49;10.18;;;5.50;;
23242;SDS011;11790;49.578;11.214;2023-10-08T00:10:49;10.60;;;5.30;;
23242;SDS011;11790;49.578;11.214;2023-10-08T00:15:51;13.23;;;4.88;;
23242;SDS011;11790;49.578;11.214;2023-10-08T00:20:54;8.70;;;4.75;;
23242;SDS011;11790;49.578;11.214;2023-10-08T00:26:16;11.05;;;5.60;;
23242;SDS011;11790;49.578;11.214;2023-10-08T00:31:23;10.30;;;5.38;;
23242;SDS011;11790;49.578;11.214;2023-10-08T00:36:38;11.65;;;5.05;;
23242;SDS011;11790;49.578;11.214;2023-10-08T00:41:45;10.98;;;5.03;;
23242;SDS011;11790;49.578;11.214;2023-10-08T00:51:49;8.68;;;4.13;;
23242;SDS011;11790;49.578;11.214;2023-10-08T00:57:09;9.00;;;4.70;;
23242;SDS011;11790;49.578;11.214;2023-10-08T01:02:11;6.75;;;3.97;;
23242;SDS011;11790;49.578;11.214;2023-10-08T01:07:14;8.20;;;4.82;;
23242;SDS011;11790;49.578;11.214;2023-10-08T01:12:19;8.38;;;4.35;;
23242;SDS011;11790;49.578;11.214;2023-10-08T01:17:36;8.05;;;4.72;;
23242;SDS011;11790;49.578;11.214;2023-10-08T01:22:45;10.73;;;5.07;;
23242;SDS011;11790;49.578;11.214;2023-10-08T01:27:46;9.15;;;4.47;;
23242;SDS011;11790;49.578;11.214;2023-10-08T01:32:46;8.73;;;4.10;;
23242;SDS011;11790;49.578;11.214;2023-10-08T01:37:46;9.30;;;4.50;;
23242;SDS011;11790;49.578;11.214;2023-10-08T01:42:51;6.75;;;3.67;;
23242;SDS011;11790;49.578;11.214;2023-10-08T01:47:52;10.05;;;4.35;;
23242;SDS011;11790;49.578;11.214;2023-10-08T01:52:55;9.00;;;4.10;;
23242;SDS011;11790;49.578;11.214;2023-10-08T01:57:55;7.90;;;3.80;;
23242;SDS011;11790;49.578;11.214;2023-10-08T02:02:56;7.00;;;4.13;;
23242;SDS011;11790;49.578;11.214;2023-10-08T02:07:59;7.45;;;4.03;;
23242;SDS011;11790;49.578;11.214;2023-10-08T02:12:59;7.88;;;3.75;;
23242;SDS011;11790;49.578;11.214;2023-10-08T02:17:59;7.65;;;3.60;;
23242;SDS011;11790;49.578;11.214;2023-10-08T02:23:00;5.82;;;3.17;;
23242;SDS011;11790;49.578;11.214;2023-10-08T02:28:01;9.65;;;4.03;;
23242;SDS011;11790;49.578;11.214;2023-10-08T02:33:02;9.63;;;3.85;;
23242;SDS011;11790;49.578;11.214;2023-10-08T02:38:04;6.95;;;3.80;;
23242;SDS011;11790;49.578;11.214;2023-10-08T02:43:06;8.25;;;3.50;;
23242;SDS011;11790;49.578;11.214;2023-10-08T02:48:08;9.88;;;4.05;;
23242;SDS011;11790;49.578;11.214;2023-10-08T02:53:13;8.88;;;4.25;;
23242;SDS011;11790;49.578;11.214;2023-10-08T02:58:17;10.63;;;4.20;;
23242;SDS011;11790;49.578;11.214;2023-10-08T03:03:21;8.90;;;4.15;;
23242;SDS011;11790;49.578;11.214;2023-10-08T03:08:24;7.20;;;3.45;;
23242;SDS011;11790;49.578;11.214;2023-10-08T03:13:24;9.85;;;4.07;;
23242;SDS011;11790;49.578;11.214;2023-10-08T03:18:30;7.82;;;4.10;;
23242;SDS011;11790;49.578;11.214;2023-10-08T03:23:35;7.07;;;3.70;;
23242;SDS011;11790;49.578;11.214;2023-10-08T03:28:37;9.27;;;4.30;;
23242;SDS011;11790;49.578;11.214;2023-10-08T03:33:37;8.90;;;4.28;;
23242;SDS011;11790;49.578;11.214;2023-10-08T03:38:37;8.10;;;4.40;;
23242;SDS011;11790;49.578;11.214;2023-10-08T03:43:50;7.95;;;4.18;;
23242;SDS011;11790;49.578;11.214;2023-10-08T03:49:01;8.25;;;4.07;;
23242;SDS011;11790;49.578;11.214;2023-10-08T03:54:08;10.80;;;4.35;;
23242;SDS011;11790;49.578;11.214;2023-10-08T03:59:18;8.95;;;4.40;;
23242;SDS011;11790;49.578;11.214;2023-10-08T04:04:43;9.80;;;3.80;;
23242;SDS011;11790;49.578;11.214;2023-10-08T04:15:06;7.68;;;3.85;;
23242;SDS011;11790;49.578;11.214;2023-10-08T04:20:07;7.68;;;3.40;;
23242;SDS011;11790;49.578;11.214;2023-10-08T04:25:28;9.30;;;3.90;;
23242;SDS011;11790;49.578;11.214;2023-10-08T04:30:32;7.03;;;4.07;;
23242;SDS011;11790;49.578;11.214;2023-10-08T04:35:37;6.97;;;3.83;;
23242;SDS011;11790;49.578;11.214;2023-10-08T04:40:44;8.38;;;3.50;;
23242;SDS011;11790;49.578;11.214;2023-10-08T04:45:54;7.47;;;3.60;;
23242;SDS011;11790;49.578;11.214;2023-10-08T04:50:56;7.60;;;3.78;;
23242;SDS011;11790;49.578;11.214;2023-10-08T04:56:01;9.50;;;3.92;;
23242;SDS011;11790;49.578;11.214;2023-10-08T05:01:22;6.72;;;3.40;;
23242;SDS011;11790;49.578;11.214;2023-10-08T05:06:42;10.00;;;3.70;;
23242;SDS011;11790;49.578;11.214;2023-10-08T05:11:46;10.27;;;3.70;;
23242;SDS011;11790;49.578;11.214;2023-10-08T05:17:07;8.77;;;3.45;;
23242;SDS011;11790;49.578;11.214;2023-10-08T05:22:11;7.97;;;3.60;;
23242;SDS011;11790;49.578;11.214;2023-10-08T05:27:26;8.68;;;3.70;;
23242;SDS011;11790;49.578;11.214;2023-10-08T05:32:37;9.13;;;4.25;;
23242;SDS011;11790;49.578;11.214;2023-10-08T05:42:47;7.25;;;3.33;;
23242;SDS011;11790;49.578;11.214;2023-10-08T05:47:50;11.82;;;4.80;;
23242;SDS011;11790;49.578;11.214;2023-10-08T05:53:13;7.70;;;3.95;;
23242;SDS011;11790;49.578;11.214;2023-10-08T05:58:29;11.55;;;4.75;;
23242;SDS011;11790;49.578;11.214;2023-10-08T06:03:45;10.23;;;4.07;;
23242;SDS011;11790;49.578;11.214;2023-10-08T06:09:11;8.68;;;3.30;;
23242;SDS011;11790;49.578;11.214;2023-10-08T06:14:11;8.38;;;3.42;;
23242;SDS011;11790;49.578;11.214;2023-10-08T06:19:28;7.22;;;3.88;;
23242;SDS011;11790;49.578;11.214;2023-10-08T06:24:28;7.60;;;3.60;;
23242;SDS011;11790;49.578;11.214;2023-10-08T06:29:28;8.27;;;3.70;;
23242;SDS011;11790;49.578;11.214;2023-10-08T06:34:29;9.70;;;4.00;;
23242;SDS011;11790;49.578;11.214;2023-10-08T06:39:31;8.02;;;3.95;;
23242;SDS011;11790;49.578;11.214;2023-10-08T06:44:47;6.18;;;3.42;;
23242;SDS011;11790;49.578;11.214;2023-10-08T06:49:48;7.50;;;3.72;;
23242;SDS011;11790;49.578;11.214;2023-10-08T06:54:48;12.53;;;4.03;;
23242;SDS011;11790;49.578;11.214;2023-10-08T06:59:49;9.18;;;4.32;;
23242;SDS011;11790;49.578;11.214;2023-10-08T07:04:50;6.78;;;3.95;;
23242;SDS011;11790;49.578;11.214;2023-10-08T07:09:51;9.70;;;3.80;;
23242;SDS011;11790;49.578;11.214;2023-10-08T07:14:52;12.07;;;5.53;;
23242;SDS011;11790;49.578;11.214;2023-10-08T07:19:52;9.00;;;4.25;;
23242;SDS011;11790;49.578;11.214;2023-10-08T07:24:53;8.80;;;3.75;;
23242;SDS011;11790;49.578;11.214;2023-10-08T07:29:53;9.00;;;3.72;;
23242;SDS011;11790;49.578;11.214;2023-10-08T07:34:55;11.07;;;4.18;;
23242;SDS011;11790;49.578;11.214;2023-10-08T07:40:06;7.10;;;3.70;;
23242;SDS011;11790;49.578;11.214;2023-10-08T07:45:11;9.30;;;3.28;;
23242;SDS011;11790;49.578;11.214;2023-10-08T07:50:17;7.27;;;3.77;;
23242;SDS011;11790;49.578;11.214;2023-10-08T07:55:17;8.73;;;3.78;;
23242;SDS011;11790;49.578;11.214;2023-10-08T08:00:18;9.17;;;4.00;;
23242;SDS011;11790;49.578;11.214;2023-10-08T08:05:19;7.30;;;3.35;;
23242;SDS011;11790;49.578;11.214;2023-10-08T08:10:20;6.75;;;3.17;;
23242;SDS011;11790;49.578;11.214;2023-10-08T08:15:23;6.43;;;3.33;;
23242;SDS011;11790;49.578;11.214;2023-10-08T08:20:26;7.65;;;3.15;;
23242;SDS011;11790;49.578;11.214;2023-10-08T08:25:38;6.03;;;3.50;;
23242;SDS011;11790;49.578;11.214;2023-10-08T08:30:46;8.73;;;3.72;;
23242;SDS011;11790;49.578;11.214;2023-10-08T08:35:57;7.13;;;3.60;;
23242;SDS011;11790;49.578;11.214;2023-10-08T08:41:01;9.15;;;3.42;;
23242;SDS011;11790;49.578;11.214;2023-10-08T08:46:06;9.45;;;3.60;;
23242;SDS011;11790;49.578;11.214;2023-10-08T08:51:07;7.75;;;3.30;;
23242;SDS011;11790;49.578;11.214;2023-10-08T08:56:07;6.43;;;3.90;;
23242;SDS011;11790;49.578;11.214;2023-10-08T09:01:10;9.80;;;3.72;;
23242;SDS011;11790;49.578;11.214;2023-10-08T09:06:13;10.68;;;3.88;;
23242;SDS011;11790;49.578;11.214;2023-10-08T09:11:13;9.07;;;3.42;;
23242;SDS011;11790;49.578;11.214;2023-10-08T09:16:15;9.55;;;3.90;;
23242;SDS011;11790;49.578;11.214;2023-10-08T09:21:18;6.03;;;3.45;;
23242;SDS011;11790;49.578;11.214;2023-10-08T09:26:23;6.80;;;3.35;;
23242;SDS011;11790;49.578;11.214;2023-10-08T09:31:23;6.70;;;3.28;;
23242;SDS011;11790;49.578;11.214;2023-10-08T09:36:24;6.88;;;3.60;;
23242;SDS011;11790;49.578;11.214;2023-10-08T09:41:31;11.55;;;4.10;;
23242;SDS011;11790;49.578;11.214;2023-10-08T09:46:32;9.77;;;3.85;;
23242;SDS011;11790;49.578;11.214;2023-10-08T09:51:39;7.57;;;4.00;;
23242;SDS011;11790;49.578;11.214;2023-10-08T09:56:40;7.88;;;4.00;;
23242;SDS011;11790;49.578;11.214;2023-10-08T10:01:40;10.38;;;3.78;;
23242;SDS011;11790;49.578;11.214;2023-10-08T10:06:41;7.78;;;4.10;;
23242;SDS011;11790;49.578;11.214;2023-10-08T10:11:49;9.20;;;3.67;;
23242;SDS011;11790;49.578;11.214;2023-10-08T10:22:10;8.27;;;3.90;;
23242;SDS011;11790;49.578;11.214;2023-10-08T10:27:12;10.70;;;4.50;;
23242;SDS011;11790;49.578;11.214;2023-10-08T10:32:14;8.13;;;4.07;;
23242;SDS011;11790;49.578;11.214;2023-10-08T10:37:15;6.80;;;3.88;;
23242;SDS011;11790;49.578;11.214;2023-10-08T10:42:23;7.15;;;4.10;;
23242;SDS011;11790;49.578;11.214;2023-10-08T10:47:23;8.25;;;3.97;;
23242;SDS011;11790;49.578;11.214;2023-10-08T10:52:27;9.10;;;4.60;;
23242;SDS011;11790;49.578;11.214;2023-10-08T10:57:52;8.90;;;3.80;;
23242;SDS011;11790;49.578;11.214;2023-10-08T11:02:56;9.02;;;4.40;;
23242;SDS011;11790;49.578;11.214;2023-10-08T11:08:00;9.45;;;4.15;;
23242;SDS011;11790;49.578;11.214;2023-10-08T11:13:06;12.85;;;4.10;;
23242;SDS011;11790;49.578;11.214;2023-10-08T11:18:14;8.38;;;3.80;;
23242;SDS011;11790;49.578;11.214;2023-10-08T11:23:36;8.73;;;3.75;;
23242;SDS011;11790;49.578;11.214;2023-10-08T11:28:38;9.88;;;3.50;;
23242;SDS011;11790;49.578;11.214;2023-10-08T11:33:47;9.95;;;4.25;;
23242;SDS011;11790;49.578;11.214;2023-10-08T11:38:57;11.65;;;3.92;;
23242;SDS011;11790;49.578;11.214;2023-10-08T11:44:07;13.50;;;4.22;;
23242;SDS011;11790;49.578;11.214;2023-10-08T11:54:17;9.15;;;3.60;;
23242;SDS011;11790;49.578;11.214;2023-10-08T11:59:20;9.93;;;4.18;;
23242;SDS011;11790;49.578;11.214;2023-10-08T12:04:20;9.27;;;3.75;;
23242;SDS011;11790;49.578;11.214;2023-10-08T12:09:22;10.45;;;3.95;;
23242;SDS011;11790;49.578;11.214;2023-10-08T12:14:27;7.70;;;4.10;;
23242;SDS011;11790;49.578;11.214;2023-10-08T12:19:30;11.68;;;4.82;;
23242;SDS011;11790;49.578;11.214;2023-10-08T12:24:32;7.97;;;3.88;;
23242;SDS011;11790;49.578;11.214;2023-10-08T12:29:33;12.15;;;4.32;;
23242;SDS011;11790;49.578;11.214;2023-10-08T12:34:35;11.93;;;4.05;;
23242;SDS011;11790;49.578;11.214;2023-10-08T12:39:35;6.30;;;3.50;;
23242;SDS011;11790;49.578;11.214;2023-10-08T12:44:44;9.10;;;3.97;;
23242;SDS011;11790;49.578;11.214;2023-10-08T12:49:44;6.53;;;3.90;;
23242;SDS011;11790;49.578;11.214;2023-10-08T12:54:46;8.13;;;4.05;;
23242;SDS011;11790;49.578;11.214;2023-10-08T12:59:47;13.43;;;4.20;;
23242;SDS011;11790;49.578;11.214;2023-10-08T13:04:51;10.40;;;4.57;;
23242;SDS011;11790;49.578;11.214;2023-10-08T13:09:54;11.23;;;3.85;;
23242;SDS011;11790;49.578;11.214;2023-10-08T13:14:55;8.07;;;4.20;;
23242;SDS011;11790;49.578;11.214;2023-10-08T13:19:55;12.95;;;4.07;;
23242;SDS011;11790;49.578;11.214;2023-10-08T13:24:55;8.80;;;4.18;;
23242;SDS011;11790;49.578;11.214;2023-10-08T13:29:55;6.25;;;3.00;;
23242;SDS011;11790;49.578;11.214;2023-10-08T13:34:56;5.05;;;2.33;;
23242;SDS011;11790;49.578;11.214;2023-10-08T13:39:56;5.45;;;2.50;;
23242;SDS011;11790;49.578;11.214;2023-10-08T13:44:56;5.32;;;2.53;;
23242;SDS011;11790;49.578;11.214;2023-10-08T13:49:59;4.15;;;2.50;;
23242;SDS011;11790;49.578;11.214;2023-10-08T13:54:59;6.65;;;2.20;;
23242;SDS011;11790;49.578;11.214;2023-10-08T14:00:00;5.60;;;2.42;;
23242;SDS011;11790;49.578;11.214;2023-10-08T14:05:00;3.90;;;1.98;;
23242;SDS011;11790;49.578;11.214;2023-10-08T14:10:03;4.45;;;2.28;;
23242;SDS011;11790;49.578;11.214;2023-10-08T14:15:08;4.28;;;2.42;;
23242;SDS011;11790;49.578;11.214;2023-10-08T14:25:16;3.60;;;1.80;;
23242;SDS011;11790;49.578;11.214;2023-10-08T14:30:17;5.80;;;2.25;;
23242;SDS011;11790;49.578;11.214;2023-10-08T14:35:21;4.07;;;2.17;;
23242;SDS011;11790;49.578;11.214;2023-10-08T14:40:40;3.70;;;2.00;;
23242;SDS011;11790;49.578;11.214;2023-10-08T14:45:59;4.93;;;2.53;;
23242;SDS011;11790;49.578;11.214;2023-10-08T14:51:03;6.35;;;3.47;;
23242;SDS011;11790;49.578;11.214;2023-10-08T14:56:06;3.90;;;2.25;;
23242;SDS011;11790;49.578;11.214;2023-10-08T15:01:07;4.13;;;1.98;;
23242;SDS011;11790;49.578;11.214;2023-10-08T15:06:08;5.40;;;2.25;;
23242;SDS011;11790;49.578;11.214;2023-10-08T15:11:10;5.07;;;2.08;;
23242;SDS011;11790;49.578;11.214;2023-10-08T15:16:10;6.17;;;2.87;;
23242;SDS011;11790;49.578;11.214;2023-10-08T15:21:12;5.40;;;2.70;;
23242;SDS011;11790;49.578;11.214;2023-10-08T15:26:12;4.72;;;2.50;;
23242;SDS011;11790;49.578;11.214;2023-10-08T15:31:13;6.28;;;2.28;;
23242;SDS011;11790;49.578;11.214;2023-10-08T15:36:13;4.95;;;2.40;;
23242;SDS011;11790;49.578;11.214;2023-10-08T15:41:13;4.95;;;2.53;;
23242;SDS011;11790;49.578;11.214;2023-10-08T15:46:13;4.27;;;2.30;;
23242;SDS011;11790;49.578;11.214;2023-10-08T15:51:14;4.15;;;1.90;;
23242;SDS011;11790;49.578;11.214;2023-10-08T15:56:14;4.70;;;2.00;;
23242;SDS011;11790;49.578;11.214;2023-10-08T16:01:14;5.03;;;2.40;;
23242;SDS011;11790;49.578;11.214;2023-10-08T16:06:14;4.55;;;2.47;;
23242;SDS011;11790;49.578;11.214;2023-10-08T16:11:15;6.18;;;2.67;;
23242;SDS011;11790;49.578;11.214;2023-10-08T16:16:15;6.75;;;2.25;;
23242;SDS011;11790;49.578;11.214;2023-10-08T16:21:15;11.05;;;3.03;;
23242;SDS011;11790;49.578;11.214;2023-10-08T16:26:17;7.38;;;2.20;;
23242;SDS011;11790;49.578;11.214;2023-10-08T16:31:17;6.03;;;2.30;;
23242;SDS011;11790;49.578;11.214;2023-10-08T16:36:18;4.15;;;2.17;;
23242;SDS011;11790;49.578;11.214;2023-10-08T16:41:19;5.80;;;2.10;;
23242;SDS011;11790;49.578;11.214;2023-10-08T16:46:19;3.58;;;2.00;;
23242;SDS011;11790;49.578;11.214;2023-10-08T16:51:19;5.57;;;2.13;;
23242;SDS011;11790;49.578;11.214;2023-10-08T16:56:19;5.65;;;2.10;;
23242;SDS011;11790;49.578;11.214;2023-10-08T17:01:21;4.22;;;2.20;;
23242;SDS011;11790;49.578;11.214;2023-10-08T17:06:21;4.80;;;2.60;;
23242;SDS011;11790;49.578;11.214;2023-10-08T17:11:22;3.70;;;2.10;;
23242;SDS011;11790;49.578;11.214;2023-10-08T17:16:23;4.82;;;2.72;;
23242;SDS011;11790;49.578;11.214;2023-10-08T17:21:23;8.18;;;2.55;;
23242;SDS011;11790;49.578;11.214;2023-10-08T17:26:24;4.75;;;2.70;;
23242;SDS011;11790;49.578;11.214;2023-10-08T17:31:24;5.80;;;3.40;;
23242;SDS011;11790;49.578;11.214;2023-10-08T17:36:24;4.35;;;2.65;;
23242;SDS011;11790;49.578;11.214;2023-10-08T17:41:28;5.30;;;2.45;;
23242;SDS011;11790;49.578;11.214;2023-10-08T17:46:29;5.78;;;3.38;;
23242;SDS011;11790;49.578;11.214;2023-10-08T17:51:30;6.85;;;4.00;;
23242;SDS011;11790;49.578;11.214;2023-10-08T17:56:34;3.92;;;2.55;;
23242;SDS011;11790;49.578;11.214;2023-10-08T18:01:34;5.82;;;2.80;;
23242;SDS011;11790;49.578;11.214;2023-10-08T18:06:37;6.40;;;3.20;;
23242;SDS011;11790;49.578;11.214;2023-10-08T18:11:37;5.25;;;3.47;;
23242;SDS011;11790;49.578;11.214;2023-10-08T18:16:43;3.78;;;2.92;;
23242;SDS011;11790;49.578;11.214;2023-10-08T18:21:44;4.90;;;2.67;;
23242;SDS011;11790;49.578;11.214;2023-10-08T18:26:44;4.32;;;2.83;;
23242;SDS011;11790;49.578;11.214;2023-10-08T18:31:47;4.13;;;2.50;;
23242;SDS011;11790;49.578;11.214;2023-10-08T18:36:48;6.68;;;2.53;;
23242;SDS011;11790;49.578;11.214;2023-10-08T18:41:48;4.53;;;2.60;;
23242;SDS011;11790;49.578;11.214;2023-10-08T18:46:48;5.50;;;2.63;;
23242;SDS011;11790;49.578;11.214;2023-10-08T18:51:49;6.25;;;2.72;;
23242;SDS011;11790;49.578;11.214;2023-10-08T18:56:50;5.10;;;2.53;;
23242;SDS011;11790;49.578;11.214;2023-10-08T19:01:50;5.78;;;2.72;;
23242;SDS011;11790;49.578;11.214;2023-10-08T19:06:50;6.72;;;3.20;;
23242;SDS011;11790;49.578;11.214;2023-10-08T19:11:51;6.15;;;2.80;;
23242;SDS011;11790;49.578;11.214;2023-10-08T19:16:51;4.00;;;2.40;;
23242;SDS011;11790;49.578;11.214;2023-10-08T19:21:52;4.18;;;2.50;;
23242;SDS011;11790;49.578;11.214;2023-10-08T19:26:53;11.82;;;3.40;;
23242;SDS011;11790;49.578;11.214;2023-10-08T19:31:55;5.80;;;3.45;;
23242;SDS011;11790;49.578;11.214;2023-10-08T19:36:55;5.18;;;2.85;;
23242;SDS011;11790;49.578;11.214;2023-10-08T19:41:55;5.95;;;2.78;;
23242;SDS011;11790;49.578;11.214;2023-10-08T19:46:56;4.78;;;2.75;;
23242;SDS011;11790;49.578;11.214;2023-10-08T19:51:56;5.50;;;3.25;;
23242;SDS011;11790;49.578;11.214;2023-10-08T19:56:57;7.32;;;2.97;;
23242;SDS011;11790;49.578;11.214;2023-10-08T20:01:59;8.45;;;3.55;;
23242;SDS011;11790;49.578;11.214;2023-10-08T20:06:59;6.00;;;3.10;;
23242;SDS011;11790;49.578;11.214;2023-10-08T20:11:59;5.15;;;3.05;;
23242;SDS011;11790;49.578;11.214;2023-10-08T20:17:00;8.57;;;3.40;;
23242;SDS011;11790;49.578;11.214;2023-10-08T20:22:08;4.90;;;3.08;;
23242;SDS011;11790;49.578;11.214;2023-10-08T20:27:08;6.03;;;3.40;;
23242;SDS011;11790;49.578;11.214;2023-10-08T20:32:08;8.17;;;3.63;;
23242;SDS011;11790;49.578;11.214;2023-10-08T20:37:09;8.68;;;3.58;;
23242;SDS011;11790;49.578;11.214;2023-10-08T20:42:11;5.60;;;3.40;;
23242;SDS011;11790;49.578;11.214;2023-10-08T20:47:11;7.20;;;3.38;;
23242;SDS011;11790;49.578;11.214;2023-10-08T20:52:11;5.72;;;3.13;;
23242;SDS011;11790;49.578;11.214;2023-10-08T20:57:12;4.93;;;3.25;;
23242;SDS011;11790;49.578;11.214;2023-10-08T21:02:12;8.05;;;3.30;;
23242;SDS011;11790;49.578;11.214;2023-10-08T21:07:13;7.32;;;3.50;;
23242;SDS011;11790;49.578;11.214;2023-10-08T21:12:13;7.22;;;2.80;;
23242;SDS011;11790;49.578;11.214;2023-10-08T21:17:13;5.85;;;2.70;;
23242;SDS011;11790;49.578;11.214;2023-10-08T21:22:13;6.25;;;2.80;;
23242;SDS011;11790;49.578;11.214;2023-10-08T21:27:13;6.18;;;2.97;;
23242;SDS011;11790;49.578;11.214;2023-10-08T21:32:14;4.57;;;2.70;;
23242;SDS011;11790;49.578;11.214;2023-10-08T21:37:14;3.92;;;2.78;;
23242;SDS011;11790;49.578;11.214;2023-10-08T21:42:14;4.95;;;2.70;;
23242;SDS011;11790;49.578;11.214;2023-10-08T21:47:14;6.90;;;3.08;;
23242;SDS011;11790;49.578;11.214;2023-10-08T21:52:14;6.97;;;3.22;;
23242;SDS011;11790;49.578;11.214;2023-10-08T21:57:14;5.28;;;3.03;;
23242;SDS011;11790;49.578;11.214;2023-10-08T22:02:18;6.70;;;3.20;;
23242;SDS011;11790;49.578;11.214;2023-10-08T22:07:19;6.97;;;2.88;;
23242;SDS011;11790;49.578;11.214;2023-10-08T22:12:19;6.00;;;2.92;;
23242;SDS011;11790;49.578;11.214;2023-10-08T22:17:19;6.38;;;2.90;;
23242;SDS011;11790;49.578;11.214;2023-10-08T22:22:26;4.72;;;2.78;;
23242;SDS011;11790;49.578;11.214;2023-10-08T22:27:26;5.50;;;3.22;;
23242;SDS011;11790;49.578;11.214;2023-10-08T22:32:33;7.65;;;3.15;;
23242;SDS011;11790;49.578;11.214;2023-10-08T22:37:33;3.63;;;2.72;;
23242;SDS011;11790;49.578;11.214;2023-10-08T22:42:53;4.55;;;2.88;;
23242;SDS011;11790;49.578;11.214;2023-10-08T22:47:54;5.70;;;3.40;;
23242;SDS011;11790;49.578;11.214;2023-10-08T22:52:57;6.05;;;2.92;;
23242;SDS011;11790;49.578;11.214;2023-10-08T22:58:01;8.95;;;3.38;;
23242;SDS011;11790;49.578;11.214;2023-10-08T23:03:07;9.93;;;3.33;;
23242;SDS011;11790;49.578;11.214;2023-10-08T23:08:08;5.35;;;3.83;;
23242;SDS011;11790;49.578;11.214;2023-10-08T23:13:10;4.20;;;2.95;;
23242;SDS011;11790;49.578;11.214;2023-10-08T23:18:10;5.60;;;3.05;;
23242;SDS011;11790;49.578;11.214;2023-10-08T23:23:12;4.28;;;3.10;;
23242;SDS011;11790;49.578;11.214;2023-10-08T23:28:13;4.30;;;2.97;;
23242;SDS011;11790;49.578;11.214;2023-10-08T23:33:13;4.85;;;3.00;;
23242;SDS011;11790;49.578;11.214;2023-10-08T23:38:13;6.15;;;2.88;;
23242;SDS011;11790;49.578;11.214;2023-10-08T23:43:26;5.07;;;2.90;;
23242;SDS011;11790;49.578;11.214;2023-10-08T23:48:33;4.50;;;2.75;;
23242;SDS011;11790;49.578;11.214;2023-10-08T23:53:46;9.20;;;3.00;;
23242;SDS011;11790;49.578;11.214;2023-10-08T23:58:54;4.50;;;3.08;;
